Time;durP1;ratioP1;P1;durP2;ratioP2;P2;SDS_P1;SDS_P2;PMS_P1;PMS_P2;Temp;Humidity;BMP_temperature;BMP_pressure;BME280_temperature;BME280_humidity;BME280_pressure;Samples;Min_cycle;Max_cycle;Signal;HPM_P1;HPM_P2
2021/12/22 00:01:51;;;;;;;23.08;15.70;;;-3.90;99.90;;;;;;4997062;28;20478;-57
2021/12/22 00:04:21;;;;;;;21.10;14.27;;;-3.90;99.90;;;;;;5006379;28;20172;-58
2021/12/22 00:06:46;;;;;;;24.13;15.32;;;-3.90;99.90;;;;;;5009218;28;20515;-59
2021/12/22 00:09:12;;;;;;;22.52;16.00;;;-4.00;99.90;;;;;;5008469;28;20038;-59
2021/12/22 00:11:37;;;;;;;22.88;15.95;;;-4.00;99.90;;;;;;5007179;28;20045;-60
2021/12/22 00:14:03;;;;;;;26.40;15.57;;;-4.00;99.90;;;;;;5009260;28;20085;-60
2021/12/22 00:16:29;;;;;;;23.77;16.63;;;-4.00;99.90;;;;;;5007234;28;20049;-60
2021/12/22 00:18:54;;;;;;;25.75;16.63;;;-4.10;99.90;;;;;;5005472;28;20050;-60
2021/12/22 00:21:20;;;;;;;22.63;15.23;;;-4.10;99.90;;;;;;5008088;28;20034;-59
2021/12/22 00:23:46;;;;;;;26.02;15.82;;;-4.10;99.90;;;;;;5006406;28;20038;-59
2021/12/22 00:26:13;;;;;;;23.73;15.35;;;-4.10;99.90;;;;;;5007768;28;20049;-59
2021/12/22 00:28:40;;;;;;;25.70;15.80;;;-4.20;99.90;;;;;;5004754;28;20122;-58
2021/12/22 00:31:11;;;;;;;20.70;15.20;;;;;;;;;;5005234;28;20088;-59
2021/12/22 00:33:45;;;;;;;24.10;15.23;;;-4.00;99.90;;;;;;5008230;28;20050;-59
2021/12/22 00:36:11;;;;;;;22.15;15.25;;;-4.20;99.90;;;;;;5008283;28;20046;-59
2021/12/22 00:38:37;;;;;;;20.55;14.52;;;-4.10;99.90;;;;;;5009342;28;20046;-59
2021/12/22 00:41:03;;;;;;;22.27;15.77;;;-4.10;99.90;;;;;;4990232;28;20401;-59
2021/12/22 00:43:28;;;;;;;21.45;15.30;;;-4.10;99.90;;;;;;5009837;28;20042;-59
2021/12/22 00:45:56;;;;;;;22.33;15.63;;;-4.20;99.90;;;;;;5007623;28;20468;-59
2021/12/22 00:48:22;;;;;;;22.08;15.20;;;-4.20;99.90;;;;;;5009403;28;20100;-59
2021/12/22 00:50:48;;;;;;;23.65;15.75;;;-4.20;99.90;;;;;;5009326;28;20534;-59
2021/12/22 00:53:14;;;;;;;23.30;16.05;;;-4.20;99.90;;;;;;5009247;28;20054;-59
2021/12/22 00:55:40;;;;;;;24.85;16.27;;;-4.20;99.90;;;;;;5007437;28;20416;-59
2021/12/22 00:58:06;;;;;;;23.45;15.88;;;-4.20;99.90;;;;;;5011229;28;20045;-59
2021/12/22 01:00:32;;;;;;;23.55;15.88;;;-4.20;99.90;;;;;;5003489;28;20132;-57
2021/12/22 01:02:58;;;;;;;22.30;14.85;;;-4.30;99.90;;;;;;5008080;28;20046;-59
2021/12/22 01:05:24;;;;;;;25.55;15.60;;;-4.30;99.90;;;;;;5013144;28;20049;-59
2021/12/22 01:07:50;;;;;;;22.70;15.63;;;-4.30;99.90;;;;;;5007976;28;20121;-58
2021/12/22 01:10:20;;;;;;;23.02;16.35;;;-4.30;99.90;;;;;;5013067;28;20180;-59
2021/12/22 01:12:46;;;;;;;22.45;16.45;;;-4.30;99.90;;;;;;5011657;28;20172;-58
2021/12/22 01:15:12;;;;;;;23.02;15.77;;;-4.30;99.90;;;;;;5011592;28;20124;-59
2021/12/22 01:17:42;;;;;;;25.55;16.52;;;-4.30;99.90;;;;;;5009594;28;20049;-59
2021/12/22 01:20:19;;;;;;;22.85;15.70;;;-4.30;99.90;;;;;;5008645;28;20053;-59
2021/12/22 01:25:13;;;;;;;24.20;16.10;;;-4.40;99.90;;;;;;5008608;28;20133;-59
2021/12/22 01:27:41;;;;;;;20.98;14.90;;;-4.40;99.90;;;;;;5010109;28;20488;-59
2021/12/22 01:30:10;;;;;;;22.60;15.32;;;-4.40;99.90;;;;;;4990973;28;20125;-58
2021/12/22 01:32:36;;;;;;;25.75;15.35;;;-4.40;99.90;;;;;;5008780;28;20095;-59
2021/12/22 01:35:04;;;;;;;23.05;16.00;;;-4.50;99.90;;;;;;5010098;28;20042;-59
2021/12/22 01:37:30;;;;;;;21.73;15.07;;;-4.50;99.90;;;;;;5011117;28;20045;-59
2021/12/22 01:39:56;;;;;;;25.35;16.10;;;-4.50;99.90;;;;;;5009913;28;20046;-59
2021/12/22 01:42:21;;;;;;;22.20;14.90;;;-4.50;99.90;;;;;;5013437;28;20054;-59
2021/12/22 01:45:12;;;;;;;25.95;16.15;;;-4.50;99.90;;;;;;5011432;28;20034;-59
2021/12/22 01:50:37;;;;;;;22.98;14.60;;;-4.50;99.90;;;;;;5007246;28;20052;-58
2021/12/22 01:53:21;;;;;;;25.67;16.33;;;-4.50;99.90;;;;;;4986805;28;20108;-59
2021/12/22 01:56:28;;;;;;;24.92;15.70;;;-4.60;99.90;;;;;;5008276;28;20042;-59
2021/12/22 01:58:59;;;;;;;25.08;15.45;;;-4.60;99.90;;;;;;4995290;28;20058;-59
2021/12/22 02:01:26;;;;;;;27.17;15.50;;;-4.60;99.90;;;;;;5004457;28;20555;-59
2021/12/22 02:03:52;;;;;;;25.33;15.88;;;-4.60;99.90;;;;;;5011431;28;20399;-59
2021/12/22 02:06:19;;;;;;;26.63;15.57;;;-4.60;99.90;;;;;;5011211;28;20093;-59
2021/12/22 02:08:45;;;;;;;29.25;15.90;;;-4.60;99.90;;;;;;5003534;28;20133;-59
2021/12/22 02:11:13;;;;;;;25.83;16.02;;;-4.60;99.90;;;;;;5011865;28;20125;-59
2021/12/22 02:13:43;;;;;;;24.80;16.58;;;-4.60;99.90;;;;;;5011511;28;20056;-60
2021/12/22 02:16:12;;;;;;;26.88;15.40;;;-4.70;99.90;;;;;;5003871;28;20408;-59
2021/12/22 02:18:45;;;;;;;25.38;15.52;;;-4.70;99.90;;;;;;5000592;28;20416;-59
2021/12/22 02:21:11;;;;;;;27.98;16.50;;;-4.70;99.90;;;;;;5008542;28;20038;-59
2021/12/22 02:23:40;;;;;;;23.52;16.10;;;-4.70;99.90;;;;;;5011383;28;20141;-59
2021/12/22 02:26:16;;;;;;;24.45;15.85;;;-4.70;99.90;;;;;;5010717;28;20476;-59
2021/12/22 02:28:46;;;;;;;24.77;16.17;;;-4.70;99.90;;;;;;5006922;28;20038;-59
2021/12/22 02:31:17;;;;;;;29.88;17.63;;;-4.70;99.90;;;;;;5007502;28;20046;-58
2021/12/22 02:33:46;;;;;;;25.00;16.45;;;-4.80;99.90;;;;;;5004452;28;20061;-59
2021/12/22 02:38:44;;;;;;;27.27;17.00;;;-4.80;99.90;;;;;;5009512;28;20061;-58
2021/12/22 02:41:13;;;;;;;27.70;16.35;;;-4.80;99.90;;;;;;5010036;28;20136;-59
2021/12/22 02:43:53;;;;;;;26.20;17.40;;;-4.80;99.90;;;;;;5010934;28;20559;-59
2021/12/22 02:46:21;;;;;;;28.83;16.50;;;-4.80;99.90;;;;;;5009558;28;20129;-59
2021/12/22 02:48:49;;;;;;;26.60;16.20;;;-4.80;99.90;;;;;;5009996;28;20038;-58
2021/12/22 02:51:15;;;;;;;25.40;16.25;;;-4.80;99.90;;;;;;4991137;28;20417;-59
2021/12/22 02:54:00;;;;;;;25.73;17.15;;;-4.90;99.90;;;;;;5008196;28;20054;-58
2021/12/22 02:56:34;;;;;;;26.75;16.55;;;-4.80;99.90;;;;;;5005051;28;20045;-59
2021/12/22 02:59:13;;;;;;;26.35;16.08;;;-4.90;99.90;;;;;;5010366;28;20107;-59
2021/12/22 03:04:19;;;;;;;28.60;16.50;;;-4.90;99.90;;;;;;5009762;28;20128;-59
2021/12/22 03:09:18;;;;;;;26.48;17.25;;;-4.90;99.90;;;;;;5010201;28;20050;-58
2021/12/22 03:11:45;;;;;;;27.55;15.57;;;-4.90;99.90;;;;;;5009285;28;20155;-59
2021/12/22 03:14:12;;;;;;;25.65;16.33;;;-4.90;99.90;;;;;;5009644;28;20372;-59
2021/12/22 03:16:38;;;;;;;27.15;16.13;;;-4.90;99.90;;;;;;5007541;28;20114;-59
2021/12/22 03:19:03;;;;;;;27.73;17.00;;;-4.90;99.90;;;;;;5008185;28;20049;-59
2021/12/22 03:21:29;;;;;;;26.17;16.52;;;-4.90;99.90;;;;;;5008196;28;20116;-59
2021/12/22 03:23:56;;;;;;;25.02;16.17;;;-5.00;99.90;;;;;;5007715;28;20123;-59
2021/12/22 03:26:23;;;;;;;24.98;16.98;;;-4.90;99.90;;;;;;5009404;28;20115;-58
2021/12/22 03:28:50;;;;;;;25.08;16.33;;;-4.90;99.90;;;;;;5006242;28;20052;-57
2021/12/22 03:31:15;;;;;;;27.45;16.13;;;-5.00;99.90;;;;;;5007060;28;20041;-59
2021/12/22 03:33:43;;;;;;;29.08;15.40;;;-5.00;99.90;;;;;;5007827;28;20052;-59
2021/12/22 03:36:09;;;;;;;26.73;15.85;;;-5.00;99.90;;;;;;5008204;28;20133;-59
2021/12/22 03:38:36;;;;;;;27.65;16.77;;;-5.00;99.90;;;;;;5008825;28;20108;-59
2021/12/22 03:41:04;;;;;;;27.63;16.35;;;-5.00;99.90;;;;;;5006798;28;20370;-59
2021/12/22 03:43:29;;;;;;;25.63;16.50;;;-5.00;99.90;;;;;;5009157;28;20132;-59
2021/12/22 03:45:55;;;;;;;27.00;16.45;;;-5.00;99.90;;;;;;4990582;28;20564;-59
2021/12/22 03:48:22;;;;;;;27.27;17.08;;;-4.90;99.90;;;;;;5010526;28;20053;-57
2021/12/22 03:50:48;;;;;;;27.05;17.35;;;-4.90;99.90;;;;;;5008163;28;20042;-58
2021/12/22 03:53:13;;;;;;;24.52;16.40;;;-4.90;99.90;;;;;;5009726;28;20096;-58
2021/12/22 03:55:39;;;;;;;26.60;16.40;;;-4.90;99.90;;;;;;5009285;28;20141;-59
2021/12/22 03:58:06;;;;;;;27.58;16.55;;;-5.00;99.90;;;;;;5000245;28;20512;-59
2021/12/22 04:00:33;;;;;;;25.77;16.50;;;-4.90;99.90;;;;;;5002411;28;20137;-59
2021/12/22 04:02:58;;;;;;;28.50;17.33;;;-5.00;99.90;;;;;;5005805;28;20108;-59
2021/12/22 04:05:24;;;;;;;26.33;15.50;;;-5.00;99.90;;;;;;5008156;28;20058;-59
2021/12/22 04:07:50;;;;;;;27.15;16.27;;;-5.00;99.90;;;;;;5009112;28;20656;-58
2021/12/22 04:10:22;;;;;;;25.70;16.17;;;-5.00;99.90;;;;;;5007923;28;20457;-59
2021/12/22 04:12:51;;;;;;;26.48;16.38;;;-5.00;99.90;;;;;;5006240;28;20395;-60
2021/12/22 04:15:17;;;;;;;;;;;-5.00;99.90;;;;;;5010571;28;20432;-59
2021/12/22 04:17:43;;;;;;;24.67;15.77;;;-5.10;99.90;;;;;;5005553;28;19933;-59
2021/12/22 04:20:10;;;;;;;25.65;16.20;;;-5.00;99.90;;;;;;5008819;28;20040;-60
2021/12/22 04:22:36;;;;;;;26.40;15.23;;;-5.10;99.90;;;;;;5010766;28;20041;-59
2021/12/22 04:25:04;;;;;;;21.23;15.02;;;-5.10;99.90;;;;;;5011935;28;20054;-59
2021/12/22 04:27:30;;;;;;;28.80;15.80;;;-5.10;99.90;;;;;;5007974;28;20041;-59
2021/12/22 04:29:55;;;;;;;23.00;14.95;;;-5.10;99.90;;;;;;5009524;28;20042;-59
2021/12/22 04:32:21;;;;;;;25.00;15.52;;;-5.00;99.90;;;;;;5010107;28;20084;-59
2021/12/22 04:34:46;;;;;;;26.65;16.80;;;-5.10;99.90;;;;;;5009490;28;20239;-60
2021/12/22 04:37:12;;;;;;;25.38;16.15;;;-5.10;99.90;;;;;;5011723;28;20129;-59
2021/12/22 04:39:37;;;;;;;24.20;15.90;;;-5.10;99.90;;;;;;5012660;28;20113;-59
2021/12/22 04:42:03;;;;;;;24.63;15.80;;;-5.10;99.90;;;;;;5006374;28;20052;-59
2021/12/22 04:44:29;;;;;;;25.73;16.48;;;-5.10;99.90;;;;;;5012223;28;20042;-59
2021/12/22 04:46:54;;;;;;;21.75;14.95;;;-5.10;99.90;;;;;;5010353;28;20104;-59
2021/12/22 04:49:20;;;;;;;24.75;16.15;;;-5.10;99.90;;;;;;5012202;28;20042;-59
2021/12/22 04:51:51;;;;;;;23.30;15.52;;;-5.10;99.90;;;;;;5011042;28;20413;-59
2021/12/22 04:54:31;;;;;;;24.00;15.20;;;-5.10;99.90;;;;;;5011811;28;20115;-60
2021/12/22 04:56:57;;;;;;;23.80;14.63;;;-5.10;99.90;;;;;;5008590;28;20128;-59
2021/12/22 04:59:23;;;;;;;28.05;16.42;;;-5.10;99.90;;;;;;5011006;28;20124;-59
2021/12/22 05:01:49;;;;;;;27.10;15.88;;;-5.10;99.90;;;;;;5009500;28;20049;-59
2021/12/22 05:04:14;;;;;;;26.25;15.95;;;-5.10;99.90;;;;;;5011467;28;20048;-58
2021/12/22 05:06:40;;;;;;;23.73;15.07;;;-5.10;99.90;;;;;;5008652;28;20056;-58
2021/12/22 05:09:07;;;;;;;28.02;16.23;;;-5.10;99.90;;;;;;5012458;28;20045;-59
2021/12/22 05:11:34;;;;;;;26.27;16.45;;;-5.10;99.90;;;;;;5011466;28;20045;-60
2021/12/22 05:14:02;;;;;;;23.33;14.98;;;-5.10;99.90;;;;;;5008355;28;20531;-59
2021/12/22 05:16:28;;;;;;;24.27;16.05;;;-5.20;99.90;;;;;;5008794;28;20062;-59
2021/12/22 05:19:10;;;;;;;24.42;15.73;;;-5.10;99.90;;;;;;5009958;28;20042;-60
2021/12/22 05:21:36;;;;;;;25.20;15.93;;;-5.20;99.90;;;;;;5006398;28;20046;-59
2021/12/22 05:24:01;;;;;;;26.42;16.70;;;-5.10;99.90;;;;;;5012448;28;20428;-60
2021/12/22 05:26:28;;;;;;;25.63;14.95;;;-5.10;99.90;;;;;;5011170;28;20045;-59
2021/12/22 05:28:54;;;;;;;25.42;14.88;;;-5.20;99.90;;;;;;5009567;28;20042;-60
2021/12/22 05:31:21;;;;;;;25.02;16.42;;;-5.10;99.90;;;;;;5010410;28;20461;-60
2021/12/22 05:33:46;;;;;;;26.13;15.73;;;-5.20;99.90;;;;;;5007101;28;20129;-59
2021/12/22 05:36:12;;;;;;;25.10;15.70;;;-5.20;99.90;;;;;;5007070;28;20116;-60
2021/12/22 05:38:37;;;;;;;26.17;15.35;;;-5.20;99.90;;;;;;5011475;28;20420;-60
2021/12/22 05:41:03;;;;;;;25.55;16.00;;;-5.20;99.90;;;;;;5010810;28;20056;-59
2021/12/22 05:43:29;;;;;;;24.70;14.98;;;-5.20;99.90;;;;;;4993961;28;20578;-59
2021/12/22 05:45:54;;;;;;;27.45;16.23;;;-5.10;99.90;;;;;;4994396;28;20046;-59
2021/12/22 05:48:21;;;;;;;24.30;15.70;;;-5.10;99.90;;;;;;5007570;28;20116;-60
2021/12/22 05:50:50;;;;;;;29.02;16.50;;;-5.10;99.90;;;;;;5011581;28;20503;-60
2021/12/22 05:53:16;;;;;;;23.25;15.88;;;-5.20;99.90;;;;;;5010735;28;20060;-59
2021/12/22 05:55:41;;;;;;;25.77;15.48;;;-5.20;99.90;;;;;;5007676;28;20037;-59
2021/12/22 05:58:08;;;;;;;25.73;16.00;;;-5.10;99.90;;;;;;5009602;28;20088;-60
2021/12/22 06:00:33;;;;;;;26.58;15.85;;;-5.10;99.90;;;;;;5007384;28;20100;-60
2021/12/22 06:02:59;;;;;;;26.92;15.52;;;-5.10;99.90;;;;;;5007370;28;20041;-59
2021/12/22 06:05:25;;;;;;;26.05;16.17;;;-5.10;99.90;;;;;;5010371;28;20061;-60
2021/12/22 06:07:50;;;;;;;24.52;16.15;;;-5.10;99.90;;;;;;5008911;28;20372;-60
2021/12/22 06:10:16;;;;;;;25.65;16.75;;;-5.10;99.90;;;;;;4999187;28;20096;-60
2021/12/22 06:12:41;;;;;;;25.63;17.27;;;-5.10;99.90;;;;;;5011284;28;21203;-59
2021/12/22 06:15:07;;;;;;;28.52;16.20;;;-5.10;99.90;;;;;;5007442;28;20441;-58
2021/12/22 06:17:33;;;;;;;25.08;16.58;;;-5.10;99.90;;;;;;5009566;28;20077;-59
2021/12/22 06:19:59;;;;;;;27.85;16.20;;;-5.10;99.90;;;;;;5006678;28;20065;-60
2021/12/22 06:22:26;;;;;;;25.67;15.98;;;-5.10;99.90;;;;;;5008678;28;20041;-59
2021/12/22 06:24:52;;;;;;;29.27;16.73;;;-5.00;99.90;;;;;;5011141;28;20382;-59
2021/12/22 06:27:17;;;;;;;27.25;15.70;;;-5.00;99.90;;;;;;5009721;28;20096;-60
2021/12/22 06:29:43;;;;;;;26.33;16.05;;;-5.00;99.90;;;;;;5002920;28;20038;-60
2021/12/22 06:32:09;;;;;;;25.88;16.58;;;-5.00;99.90;;;;;;5006825;28;20034;-60
2021/12/22 06:34:34;;;;;;;26.33;16.15;;;-5.00;99.90;;;;;;5005736;28;20054;-58
2021/12/22 06:37:00;;;;;;;22.65;15.55;;;-5.00;99.90;;;;;;5004733;28;20060;-59
2021/12/22 06:39:25;;;;;;;26.15;15.55;;;-5.00;99.90;;;;;;5006427;28;20042;-59
2021/12/22 06:41:51;;;;;;;22.40;15.05;;;-5.10;99.90;;;;;;5011128;28;20052;-59
2021/12/22 06:44:17;;;;;;;25.27;15.38;;;-5.00;99.90;;;;;;5009567;28;20050;-60
2021/12/22 06:46:43;;;;;;;21.85;14.60;;;-5.10;99.90;;;;;;5008528;28;20483;-59
2021/12/22 06:49:10;;;;;;;25.13;15.50;;;-5.10;99.90;;;;;;5011798;28;20050;-60
2021/12/22 06:51:36;;;;;;;29.15;16.80;;;-5.10;99.90;;;;;;5010780;28;20045;-60
2021/12/22 06:54:02;;;;;;;27.15;16.05;;;-5.10;99.90;;;;;;5009276;28;20065;-59
2021/12/22 06:56:27;;;;;;;28.58;16.20;;;-5.10;99.90;;;;;;5004953;28;20050;-59
2021/12/22 06:58:54;;;;;;;26.70;16.65;;;-5.10;99.90;;;;;;5007115;28;20054;-59
2021/12/22 07:01:21;;;;;;;24.23;15.35;;;-5.10;99.90;;;;;;5004494;28;20136;-59
2021/12/22 07:03:46;;;;;;;23.40;15.45;;;-5.00;99.90;;;;;;5009197;28;20504;-59
2021/12/22 07:06:12;;;;;;;31.23;17.13;;;-5.10;99.90;;;;;;5004626;28;20073;-59
2021/12/22 07:08:38;;;;;;;25.85;15.73;;;-5.00;99.90;;;;;;5006857;28;20042;-59
2021/12/22 07:11:04;;;;;;;28.38;16.13;;;-5.00;99.90;;;;;;5010008;28;20030;-59
2021/12/22 07:13:30;;;;;;;24.98;16.08;;;-5.00;99.90;;;;;;5008256;28;20037;-60
2021/12/22 07:15:56;;;;;;;27.35;17.02;;;-5.10;99.90;;;;;;5006117;28;20052;-60
2021/12/22 07:18:21;;;;;;;22.40;15.52;;;-5.10;99.90;;;;;;5009821;28;20404;-59
2021/12/22 07:20:47;;;;;;;27.40;15.63;;;-5.10;99.90;;;;;;5009576;28;20091;-59
2021/12/22 07:23:13;;;;;;;27.83;16.25;;;-5.10;99.90;;;;;;5008696;28;20084;-59
2021/12/22 07:25:38;;;;;;;24.25;15.50;;;-5.10;99.90;;;;;;5009827;28;20167;-59
2021/12/22 07:28:04;;;;;;;26.85;16.75;;;-5.00;99.90;;;;;;4990760;28;20053;-60
2021/12/22 07:30:30;;;;;;;24.83;15.30;;;-5.00;99.90;;;;;;5010202;28;20816;-58
2021/12/22 07:32:56;;;;;;;25.33;15.63;;;-5.00;99.90;;;;;;5007817;28;20452;-59
2021/12/22 07:35:30;;;;;;;23.90;14.85;;;-5.00;99.90;;;;;;5009104;28;20419;-59
2021/12/22 07:38:22;;;;;;;26.77;16.48;;;-5.00;99.90;;;;;;5002053;28;20034;-59
2021/12/22 07:40:48;;;;;;;25.85;15.88;;;-5.00;99.90;;;;;;5006928;28;20046;-59
2021/12/22 07:43:14;;;;;;;25.63;15.57;;;-5.00;99.90;;;;;;5006090;28;20064;-60
2021/12/22 07:45:39;;;;;;;24.42;15.85;;;-5.00;99.90;;;;;;5008275;28;20033;-59
2021/12/22 07:48:05;;;;;;;26.83;16.63;;;-5.00;99.90;;;;;;5008289;28;20096;-58
2021/12/22 07:50:30;;;;;;;24.48;15.55;;;-5.00;99.90;;;;;;4992190;28;20220;-60
2021/12/22 07:52:56;;;;;;;25.27;15.32;;;-5.00;99.90;;;;;;5010157;28;20086;-60
2021/12/22 07:55:21;;;;;;;27.55;16.35;;;-4.90;99.90;;;;;;5008227;28;21833;-59
2021/12/22 07:57:47;;;;;;;25.77;15.95;;;-4.90;99.90;;;;;;5011629;28;20412;-59
2021/12/22 08:00:13;;;;;;;25.42;15.98;;;-4.90;99.90;;;;;;5006281;28;20045;-60
2021/12/22 08:02:39;;;;;;;25.83;15.30;;;-4.90;99.90;;;;;;5009388;28;20084;-59
2021/12/22 08:05:05;;;;;;;24.40;15.75;;;-4.90;99.90;;;;;;5011428;28;20511;-59
2021/12/22 08:07:31;;;;;;;28.35;16.27;;;;;;;;;;5010004;28;20046;-59
2021/12/22 08:09:57;;;;;;;29.85;16.67;;;-4.80;99.90;;;;;;5013129;28;20057;-58
2021/12/22 08:12:22;;;;;;;25.98;17.00;;;-4.80;99.90;;;;;;5012899;28;20042;-60
2021/12/22 08:14:48;;;;;;;26.52;17.08;;;-4.70;99.90;;;;;;5012624;28;20042;-60
2021/12/22 08:17:13;;;;;;;23.50;15.32;;;-4.70;99.90;;;;;;5010547;28;20143;-60
2021/12/22 08:19:40;;;;;;;27.30;16.50;;;-4.60;99.90;;;;;;5012389;28;20093;-60
2021/12/22 08:22:06;;;;;;;30.85;17.10;;;-4.60;99.90;;;;;;5010959;28;20053;-59
2021/12/22 08:24:32;;;;;;;27.00;17.00;;;-4.50;99.90;;;;;;5013098;28;20034;-59
2021/12/22 08:26:58;;;;;;;25.83;16.38;;;-4.50;99.90;;;;;;5010575;28;20050;-59
2021/12/22 08:29:24;;;;;;;26.40;16.33;;;-4.40;99.90;;;;;;5009558;28;20038;-57
2021/12/22 08:31:50;;;;;;;28.27;17.20;;;-4.40;99.90;;;;;;5011850;28;20041;-59
2021/12/22 08:34:23;;;;;;;29.65;17.02;;;-4.40;99.90;;;;;;5013389;28;20065;-59
2021/12/22 08:39:34;;;;;;;30.38;17.05;;;-4.30;99.90;;;;;;5001978;28;20113;-58
2021/12/22 08:42:00;;;;;;;28.00;17.25;;;-4.20;99.90;;;;;;5005342;28;20042;-59
2021/12/22 08:44:26;;;;;;;28.35;17.42;;;-4.20;99.90;;;;;;5001226;28;20073;-59
2021/12/22 08:46:52;;;;;;;25.50;15.88;;;-4.10;99.90;;;;;;5005123;28;21490;-59
2021/12/22 08:49:20;;;;;;;30.70;16.98;;;-4.10;99.90;;;;;;5008571;28;20500;-59
2021/12/22 08:51:47;;;;;;;28.92;16.92;;;-4.00;99.90;;;;;;5009847;28;20126;-60
2021/12/22 08:54:13;;;;;;;29.10;17.92;;;-4.00;99.90;;;;;;5008953;28;20065;-60
2021/12/22 08:56:41;;;;;;;32.05;18.10;;;-3.90;99.90;;;;;;5004147;28;20487;-60
2021/12/22 08:59:08;;;;;;;32.78;18.63;;;-3.90;99.90;;;;;;5011600;28;20045;-59
2021/12/22 09:01:34;;;;;;;30.55;18.45;;;-3.80;99.90;;;;;;5013036;28;20037;-59
2021/12/22 09:04:00;;;;;;;29.45;18.15;;;-3.80;99.90;;;;;;5013971;28;20042;-59
2021/12/22 09:06:25;;;;;;;29.23;17.65;;;-3.70;99.90;;;;;;5012480;28;20038;-60
2021/12/22 09:08:52;;;;;;;31.40;19.58;;;-3.60;99.90;;;;;;5013289;28;20140;-59
2021/12/22 09:11:18;;;;;;;33.97;19.10;;;-3.60;99.90;;;;;;4996363;28;20052;-59
2021/12/22 09:13:44;;;;;;;31.63;19.73;;;-3.60;99.90;;;;;;5014317;28;20058;-60
2021/12/22 09:16:11;;;;;;;30.80;19.02;;;-3.50;99.90;;;;;;5014340;28;20038;-58
2021/12/22 09:18:37;;;;;;;31.20;19.55;;;-3.40;99.90;;;;;;5014914;28;20048;-59
2021/12/22 09:21:04;;;;;;;30.02;18.63;;;-3.40;99.90;;;;;;5013848;28;20057;-59
2021/12/22 09:23:30;;;;;;;32.72;18.20;;;-3.40;99.90;;;;;;5013856;28;20081;-59
2021/12/22 09:25:56;;;;;;;33.33;19.88;;;-3.30;99.90;;;;;;5013678;28;20072;-59
2021/12/22 09:28:22;;;;;;;31.55;18.17;;;-3.30;99.90;;;;;;4995458;28;20069;-60
2021/12/22 09:30:48;;;;;;;26.27;18.15;;;-3.20;99.90;;;;;;5012137;28;20145;-59
2021/12/22 09:33:16;;;;;;;30.58;19.42;;;-3.20;99.90;;;;;;4995777;28;20064;-59
2021/12/22 09:35:44;;;;;;;29.25;19.50;;;-3.20;99.90;;;;;;5011514;28;20054;-59
2021/12/22 09:38:10;;;;;;;32.42;19.50;;;-3.20;99.90;;;;;;5013476;28;20116;-59
2021/12/22 09:40:37;;;;;;;29.27;18.02;;;-3.10;99.90;;;;;;5013765;28;20049;-59
2021/12/22 09:43:04;;;;;;;30.02;19.10;;;-3.10;99.90;;;;;;5011874;28;20133;-59
2021/12/22 09:45:31;;;;;;;31.23;19.02;;;-3.10;99.90;;;;;;5011169;28;20073;-60
2021/12/22 09:50:46;;;;;;;31.33;18.58;;;-3.00;99.90;;;;;;5012642;28;20049;-59
2021/12/22 09:53:14;;;;;;;30.80;17.30;;;-2.90;99.90;;;;;;5012129;28;20057;-59
2021/12/22 09:55:40;;;;;;;29.35;18.30;;;-2.80;99.90;;;;;;5012432;28;20041;-59
2021/12/22 09:58:06;;;;;;;29.20;18.08;;;-2.70;99.90;;;;;;5010758;28;20125;-60
2021/12/22 10:00:34;;;;;;;27.27;19.00;;;-2.60;99.90;;;;;;5012635;28;20122;-59
2021/12/22 10:03:01;;;;;;;28.33;17.92;;;-2.50;99.90;;;;;;5013111;28;20046;-59
2021/12/22 10:05:26;;;;;;;29.60;17.65;;;-2.50;99.90;;;;;;5013429;28;20484;-59
2021/12/22 10:08:08;;;;;;;28.75;17.45;;;-2.40;99.90;;;;;;5012482;28;20053;-59
2021/12/22 10:10:36;;;;;;;24.08;16.23;;;-2.30;99.90;;;;;;5010399;28;20061;-59
2021/12/22 10:13:11;;;;;;;26.40;16.95;;;-2.30;99.90;;;;;;5011839;28;20092;-59
2021/12/22 10:15:37;;;;;;;26.15;16.20;;;-2.20;99.90;;;;;;5011726;28;20046;-59
2021/12/22 10:18:20;;;;;;;25.95;16.77;;;-2.20;99.90;;;;;;5005356;28;20483;-59
2021/12/22 10:20:50;;;;;;;26.17;17.05;;;-2.10;99.90;;;;;;5012156;28;20138;-60
2021/12/22 10:23:26;;;;;;;25.58;17.13;;;-2.10;99.90;;;;;;5011076;28;20527;-60
2021/12/22 10:26:01;;;;;;;25.45;16.92;;;-2.00;99.90;;;;;;5007831;28;20038;-59
2021/12/22 10:28:29;;;;;;;25.65;15.82;;;-1.90;99.90;;;;;;5009874;28;20057;-60
2021/12/22 10:30:58;;;;;;;26.08;15.93;;;-1.90;99.90;;;;;;5011158;28;20149;-59
2021/12/22 10:33:26;;;;;;;27.80;17.20;;;-1.80;99.90;;;;;;5007070;28;20068;-59
2021/12/22 10:35:57;;;;;;;28.52;17.42;;;-1.80;99.90;;;;;;5005518;28;20419;-59
2021/12/22 10:38:26;;;;;;;24.27;15.40;;;-1.70;99.90;;;;;;5011216;28;20053;-59
2021/12/22 10:40:57;;;;;;;24.70;16.38;;;-1.60;99.90;;;;;;5012548;28;20499;-58
2021/12/22 10:43:26;;;;;;;23.35;15.05;;;-1.50;99.90;;;;;;5012328;28;20069;-60
2021/12/22 10:45:55;;;;;;;27.55;16.30;;;-1.40;99.90;;;;;;5011970;28;20531;-59
2021/12/22 10:51:09;;;;;;;20.40;14.50;;;-1.30;99.90;;;;;;5011074;28;20053;-59
2021/12/22 10:53:46;;;;;;;22.65;15.32;;;-1.30;99.90;;;;;;5011139;28;20069;-59
2021/12/22 10:56:31;;;;;;;21.65;14.52;;;-1.20;99.90;;;;;;5011975;28;20049;-59
2021/12/22 10:59:16;;;;;;;20.88;15.23;;;-1.10;99.90;;;;;;5011337;28;20034;-58
2021/12/22 11:01:59;;;;;;;22.65;14.95;;;-1.10;99.90;;;;;;5010742;28;20046;-60
2021/12/22 11:04:31;;;;;;;19.88;13.52;;;-1.00;99.90;;;;;;5009803;28;20038;-59
2021/12/22 11:07:22;;;;;;;19.90;14.45;;;-0.90;99.90;;;;;;5011937;28;20124;-60
2021/12/22 11:09:49;;;;;;;21.60;14.30;;;-0.90;99.90;;;;;;5010258;28;20132;-58
2021/12/22 11:12:17;;;;;;;20.75;13.38;;;-0.80;99.90;;;;;;5011636;28;20068;-58
2021/12/22 11:14:47;;;;;;;22.35;13.48;;;-0.70;99.90;;;;;;5011165;28;20050;-59
2021/12/22 11:17:14;;;;;;;16.90;11.80;;;-0.60;99.90;;;;;;5009798;28;20395;-59
2021/12/22 11:20:04;;;;;;;15.88;11.10;;;-0.50;99.90;;;;;;5011287;28;20042;-59
2021/12/22 11:22:47;;;;;;;18.98;11.20;;;-0.40;99.90;;;;;;5011699;28;20045;-59
2021/12/22 11:25:13;;;;;;;17.65;12.07;;;-0.30;99.90;;;;;;5011675;28;20038;-60
2021/12/22 11:27:39;;;;;;;15.95;10.95;;;-0.30;99.90;;;;;;5010671;28;20547;-60
2021/12/22 11:30:06;;;;;;;17.13;11.60;;;-0.20;99.90;;;;;;5011462;28;20515;-59
2021/12/22 11:32:33;;;;;;;16.08;11.98;;;-0.10;99.90;;;;;;5006688;28;20065;-60
2021/12/22 11:35:00;;;;;;;17.52;11.90;;;-0.10;99.90;;;;;;5003389;28;20049;-59
2021/12/22 11:37:27;;;;;;;20.52;12.02;;;-0.10;99.90;;;;;;5004395;28;20053;-59
2021/12/22 11:39:54;;;;;;;19.67;13.45;;;-0.20;99.90;;;;;;5010752;28;20515;-61
2021/12/22 11:42:24;;;;;;;17.70;12.13;;;-0.20;99.90;;;;;;5010599;28;20040;-61
2021/12/22 11:44:53;;;;;;;15.52;11.43;;;-0.20;99.90;;;;;;5011582;28;20085;-61
2021/12/22 11:47:18;;;;;;;16.30;11.32;;;-0.20;99.90;;;;;;5008144;28;20042;-61
2021/12/22 11:49:54;;;;;;;20.00;11.95;;;-0.20;99.90;;;;;;5012545;28;20038;-61
2021/12/22 11:52:36;;;;;;;19.60;12.50;;;-0.20;99.90;;;;;;5012968;28;20038;-60
2021/12/22 11:55:26;;;;;;;24.17;13.82;;;-0.20;99.90;;;;;;5004993;28;20041;-61
2021/12/22 11:58:11;;;;;;;20.50;12.77;;;-0.10;99.90;;;;;;5010974;28;20129;-61
2021/12/22 12:00:38;;;;;;;19.38;12.32;;;-0.20;99.90;;;;;;5009394;28;20128;-61
2021/12/22 12:03:40;;;;;;;17.33;11.82;;;-0.20;99.90;;;;;;5008963;28;20046;-61
2021/12/22 12:06:23;;;;;;;17.23;12.48;;;-0.10;99.90;;;;;;5009068;28;20511;-61
2021/12/22 12:08:58;;;;;;;16.48;11.93;;;-0.20;99.90;;;;;;5010450;28;20571;-60
2021/12/22 12:11:33;;;;;;;18.25;12.65;;;-0.20;99.90;;;;;;5010514;28;20049;-61
2021/12/22 12:14:07;;;;;;;19.17;12.38;;;-0.10;99.90;;;;;;5010460;28;20108;-61
2021/12/22 12:22:33;;;;;;;19.58;13.82;;;0.00;99.90;;;;;;5009616;28;20052;-61
2021/12/22 12:25:10;;;;;;;18.65;13.05;;;0.10;99.90;;;;;;5011498;28;20056;-60
2021/12/22 12:27:52;;;;;;;19.23;12.57;;;0.10;99.90;;;;;;5011393;28;20412;-61
2021/12/22 12:30:47;;;;;;;19.40;12.65;;;0.10;99.90;;;;;;5011623;28;20100;-60
2021/12/22 12:33:29;;;;;;;16.23;12.13;;;0.20;99.90;;;;;;5010684;28;20060;-60
2021/12/22 12:36:06;;;;;;;17.92;13.43;;;0.20;99.90;;;;;;5010994;28;20145;-61
2021/12/22 12:38:41;;;;;;;22.02;13.20;;;0.20;99.90;;;;;;5010408;28;20127;-60
2021/12/22 12:41:21;;;;;;;19.70;13.10;;;0.20;99.90;;;;;;5010287;28;20057;-60
2021/12/22 12:43:53;;;;;;;18.00;12.73;;;0.30;99.90;;;;;;5013750;28;20053;-60
2021/12/22 12:46:19;;;;;;;18.77;12.43;;;0.20;99.90;;;;;;5005520;28;20133;-60
2021/12/22 12:49:02;;;;;;;18.85;13.10;;;0.30;99.90;;;;;;5013444;28;20591;-60
2021/12/22 12:51:58;;;;;;;18.27;13.07;;;0.30;99.90;;;;;;5015353;28;20106;-60
2021/12/22 12:54:29;;;;;;;20.02;13.52;;;0.30;99.90;;;;;;5005931;28;20136;-61
2021/12/22 12:57:00;;;;;;;19.02;12.77;;;0.20;99.90;;;;;;5014713;28;20077;-60
2021/12/22 12:59:38;;;;;;;20.90;13.80;;;0.20;99.90;;;;;;5014970;28;20052;-60
2021/12/22 13:02:05;;;;;;;21.83;14.35;;;0.20;99.90;;;;;;5013866;28;20207;-60
2021/12/22 13:04:41;;;;;;;18.13;13.40;;;0.10;99.90;;;;;;5013105;28;20117;-60